createdAt,value
2023-03-01T00:00:53.574Z,99.90
2023-03-01T00:07:54.946Z,99.90
2023-03-01T00:14:55.735Z,99.90
2023-03-01T00:21:55.938Z,99.90
2023-03-01T00:28:58.790Z,99.90
2023-03-01T00:35:59.759Z,99.90
2023-03-01T00:43:00.276Z,99.90
2023-03-01T00:50:00.817Z,99.90
2023-03-01T00:57:01.249Z,99.90
2023-03-01T01:04:08.147Z,99.90
2023-03-01T01:11:11.226Z,99.90
2023-03-01T01:18:11.453Z,99.90
2023-03-01T01:25:11.811Z,99.90
2023-03-01T01:32:12.227Z,99.90
2023-03-01T01:39:14.036Z,99.90
2023-03-01T01:46:29.697Z,99.90
2023-03-01T01:53:30.448Z,99.90
2023-03-01T02:00:31.744Z,99.90
2023-03-01T02:07:32.112Z,99.90
2023-03-01T02:14:32.535Z,99.90
2023-03-01T02:22:02.427Z,99.90
2023-03-01T02:29:03.189Z,99.90
2023-03-01T02:36:12.351Z,99.90
2023-03-01T02:43:13.269Z,99.90
2023-03-01T02:50:19.815Z,99.90
2023-03-01T02:57:22.729Z,99.90
2023-03-01T03:04:23.555Z,99.90
2023-03-01T03:11:24.570Z,99.90
2023-03-01T03:18:26.861Z,99.90
2023-03-01T03:25:29.329Z,99.90
2023-03-01T03:32:31.223Z,99.90
2023-03-01T03:39:35.692Z,99.90
2023-03-01T03:46:36.427Z,99.90
2023-03-01T03:53:37.037Z,99.90
2023-03-01T04:00:43.726Z,99.90
2023-03-01T04:07:44.983Z,99.90
2023-03-01T04:14:45.491Z,99.90
2023-03-01T04:21:46.688Z,99.90
2023-03-01T04:28:49.008Z,99.90
2023-03-01T04:35:52.029Z,99.90
2023-03-01T04:42:52.542Z,99.90
2023-03-01T04:49:53.078Z,99.90
2023-03-01T04:56:53.553Z,99.90
2023-03-01T05:03:54.066Z,99.90
2023-03-01T05:10:55.389Z,99.90
2023-03-01T05:17:59.990Z,99.90
2023-03-01T05:25:00.247Z,99.90
2023-03-01T05:32:02.449Z,99.90
2023-03-01T05:39:03.046Z,99.90
2023-03-01T05:46:03.575Z,99.90
2023-03-01T05:53:08.620Z,99.90
2023-03-01T06:00:10.824Z,99.90
2023-03-01T06:07:14.174Z,99.90
2023-03-01T06:14:15.532Z,99.90
2023-03-01T06:21:15.684Z,99.90
2023-03-01T06:28:16.176Z,99.90
2023-03-01T06:35:18.767Z,99.90
2023-03-01T06:42:18.906Z,99.90
2023-03-01T06:49:20.732Z,99.90
2023-03-01T06:56:20.932Z,99.90
2023-03-01T07:03:21.410Z,99.90
2023-03-01T07:10:21.839Z,99.90
2023-03-01T07:17:22.138Z,99.90
2023-03-01T07:24:23.002Z,99.90
2023-03-01T07:31:23.011Z,99.90
2023-03-01T07:38:23.199Z,99.90
2023-03-01T07:45:23.612Z,99.90
2023-03-01T07:52:23.899Z,99.90
2023-03-01T07:59:29.778Z,99.90
2023-03-01T08:06:30.003Z,99.90
2023-03-01T08:13:31.075Z,99.90
2023-03-01T08:20:31.288Z,99.90
2023-03-01T08:27:31.641Z,99.90
2023-03-01T08:34:32.474Z,99.90
2023-03-01T08:41:32.962Z,99.90
2023-03-01T08:48:33.536Z,99.90
2023-03-01T08:55:33.992Z,99.90
2023-03-01T09:02:34.509Z,99.90
2023-03-01T09:09:35.143Z,99.90
2023-03-01T09:16:36.986Z,99.90
2023-03-01T09:23:39.807Z,99.90
2023-03-01T09:30:40.291Z,99.90
2023-03-01T09:37:43.840Z,99.90
2023-03-01T09:45:06.414Z,99.90
2023-03-01T09:52:34.363Z,99.90
2023-03-01T09:59:55.823Z,99.90
2023-03-01T10:07:10.130Z,99.90
2023-03-01T10:14:30.384Z,99.90
2023-03-01T10:21:32.408Z,99.90
2023-03-01T10:28:50.993Z,99.90
2023-03-01T10:35:51.854Z,99.90
2023-03-01T10:42:52.420Z,99.90
2023-03-01T10:50:03.246Z,99.90
2023-03-01T10:57:05.870Z,99.90
2023-03-01T11:04:06.175Z,99.90
2023-03-01T11:11:08.305Z,99.90
2023-03-01T11:18:23.676Z,99.90
2023-03-01T11:25:29.882Z,99.90
2023-03-01T11:32:42.137Z,99.90
2023-03-01T11:40:00.764Z,99.90
2023-03-01T11:47:19.261Z,99.90
2023-03-01T11:54:27.359Z,99.90
2023-03-01T12:01:41.739Z,99.90
2023-03-01T12:09:07.030Z,99.90
2023-03-01T12:16:40.238Z,99.90
2023-03-01T12:24:04.842Z,99.90
2023-03-01T12:31:27.191Z,99.90
2023-03-01T12:38:53.355Z,99.90
2023-03-01T12:46:18.069Z,99.90
2023-03-01T12:53:42.248Z,99.90
2023-03-01T13:01:04.076Z,99.90
2023-03-01T13:08:24.087Z,99.90
2023-03-01T13:15:24.434Z,99.90
2023-03-01T13:22:32.689Z,99.50
2023-03-01T13:29:57.998Z,97.80
2023-03-01T13:37:11.213Z,97.00
2023-03-01T13:44:21.194Z,96.10
2023-03-01T13:51:26.519Z,95.50
2023-03-01T13:58:29.703Z,95.20
2023-03-01T14:05:31.342Z,92.60
2023-03-01T14:13:01.292Z,92.60
2023-03-01T14:20:13.376Z,91.70
2023-03-01T14:27:14.739Z,91.50
2023-03-01T14:34:23.622Z,91.40
2023-03-01T14:41:29.512Z,91.10
2023-03-01T14:48:41.025Z,91.00
2023-03-01T14:55:54.083Z,89.00
2023-03-01T15:02:57.665Z,87.80
2023-03-01T15:09:58.391Z,81.30
2023-03-01T15:16:58.848Z,77.60
2023-03-01T15:24:20.232Z,74.30
2023-03-01T15:31:25.719Z,75.40
2023-03-01T15:38:31.730Z,70.20
2023-03-01T15:45:34.792Z,69.30
2023-03-01T15:52:41.516Z,71.70
2023-03-01T15:59:42.987Z,74.50
2023-03-01T16:06:43.410Z,76.90
2023-03-01T16:13:44.000Z,79.50
2023-03-01T16:20:44.452Z,80.60
2023-03-01T16:27:46.908Z,82.30
2023-03-01T16:34:50.105Z,82.70
2023-03-01T16:41:50.463Z,83.50
2023-03-01T16:48:51.345Z,84.20
2023-03-01T16:55:57.006Z,85.40
2023-03-01T17:02:57.419Z,85.80
2023-03-01T17:09:57.757Z,86.70
2023-03-01T17:16:59.348Z,87.50
2023-03-01T17:24:00.015Z,87.90
2023-03-01T17:31:02.969Z,88.60
2023-03-01T17:38:04.337Z,89.30
2023-03-01T17:45:05.108Z,90.00
2023-03-01T17:52:05.646Z,90.20
2023-03-01T17:59:06.690Z,90.50
2023-03-01T18:06:28.150Z,90.80
2023-03-01T18:13:28.650Z,91.10
2023-03-01T18:20:30.690Z,91.40
2023-03-01T18:27:31.841Z,91.60
2023-03-01T18:34:32.975Z,92.00
2023-03-01T18:41:34.844Z,92.40
2023-03-01T18:48:36.795Z,92.60
2023-03-01T18:55:38.576Z,93.10
2023-03-01T19:02:39.151Z,93.40
2023-03-01T19:09:40.032Z,93.50
2023-03-01T19:16:40.784Z,93.80
2023-03-01T19:23:41.253Z,94.00
2023-03-01T19:30:41.572Z,94.30
2023-03-01T19:37:41.753Z,94.60
2023-03-01T19:44:42.125Z,94.80
2023-03-01T19:51:42.406Z,95.00
2023-03-01T19:58:43.346Z,95.30
2023-03-01T20:05:43.654Z,95.50
2023-03-01T20:12:44.247Z,95.80
2023-03-01T20:19:44.729Z,96.00
2023-03-01T20:26:45.301Z,96.30
2023-03-01T20:33:46.407Z,96.60
2023-03-01T20:40:46.507Z,96.80
2023-03-01T20:47:48.017Z,97.10
2023-03-01T20:54:48.583Z,97.30
2023-03-01T21:01:48.663Z,97.60
2023-03-01T21:08:49.158Z,98.00
2023-03-01T21:16:07.773Z,98.30
2023-03-01T21:23:08.173Z,98.70
2023-03-01T21:30:09.136Z,99.00
2023-03-01T21:37:10.488Z,99.30
2023-03-01T21:44:10.793Z,99.70
2023-03-01T21:51:13.738Z,99.90
2023-03-01T21:58:14.302Z,99.90
2023-03-01T22:05:14.693Z,99.90
2023-03-01T22:12:15.078Z,99.90
2023-03-01T22:19:17.041Z,99.90
2023-03-01T22:26:27.370Z,99.90
2023-03-01T22:33:27.678Z,99.90
2023-03-01T22:40:28.043Z,99.90
2023-03-01T22:47:29.746Z,99.90
2023-03-01T22:54:30.163Z,99.90
2023-03-01T23:01:30.886Z,99.90
2023-03-01T23:08:31.540Z,99.90
2023-03-01T23:15:32.079Z,99.90
2023-03-01T23:22:32.403Z,99.90
2023-03-01T23:29:33.103Z,99.90
2023-03-01T23:36:34.949Z,99.90
2023-03-01T23:43:36.579Z,99.90
2023-03-01T23:50:41.792Z,99.90
2023-03-01T23:57:41.911Z,99.90
